Time;durP1;ratioP1;P1;durP2;ratioP2;P2;SDS_P1;SDS_P2;PMS_P1;PMS_P2;Temp;Humidity;BMP_temperature;BMP_pressure;BME280_temperature;BME280_humidity;BME280_pressure;Samples;Min_cycle;Max_cycle;Signal;HPM_P1;HPM_P2
2021/12/04 00:02:23;;;;;;;3.85;3.28;;;5.50;99.90;;;;;;4990737;28;20026;-74
2021/12/04 00:04:52;;;;;;;4.63;4.15;;;5.50;99.90;;;;;;4989538;28;20362;-73
2021/12/04 00:07:18;;;;;;;4.35;3.85;;;5.50;99.90;;;;;;4986909;28;20488;-74
2021/12/04 00:09:46;;;;;;;6.63;3.55;;;5.50;99.90;;;;;;4991414;28;20110;-74
2021/12/04 00:12:13;;;;;;;4.35;3.35;;;5.50;99.90;;;;;;4986817;28;20038;-74
2021/12/04 00:14:41;;;;;;;7.25;3.60;;;5.50;99.90;;;;;;4986261;28;20036;-74
2021/12/04 00:17:07;;;;;;;5.03;3.78;;;5.50;99.90;;;;;;4990277;28;20255;-74
2021/12/04 00:19:33;;;;;;;5.70;4.40;;;5.40;99.90;;;;;;4992000;28;20030;-74
2021/12/04 00:22:00;;;;;;;4.57;4.18;;;5.40;99.90;;;;;;4983363;28;20023;-75
2021/12/04 00:24:26;;;;;;;4.45;4.00;;;5.30;99.90;;;;;;4988167;28;20034;-74
2021/12/04 00:26:53;;;;;;;7.65;4.82;;;5.30;99.90;;;;;;4987649;28;20408;-75
2021/12/04 00:29:20;;;;;;;4.93;3.97;;;5.20;99.90;;;;;;4987006;28;20457;-73
2021/12/04 00:31:49;;;;;;;4.32;3.92;;;5.30;99.90;;;;;;4987552;28;20466;-73
2021/12/04 00:34:16;;;;;;;4.25;3.55;;;5.30;99.90;;;;;;4989179;28;20437;-73
2021/12/04 00:50:19;;;;;;;6.13;3.83;;;5.20;99.90;;;;;;4991849;28;20033;-73
2021/12/04 00:52:44;;;;;;;4.10;3.70;;;5.20;99.90;;;;;;4998618;28;20038;-73
2021/12/04 00:55:10;;;;;;;3.60;3.30;;;5.10;99.90;;;;;;4992666;28;20085;-74
2021/12/04 00:57:38;;;;;;;4.53;3.63;;;5.20;99.90;;;;;;4990656;28;20069;-73
2021/12/04 01:00:06;;;;;;;3.72;2.92;;;5.20;99.90;;;;;;4990125;28;20026;-74
2021/12/04 01:02:32;;;;;;;7.80;3.60;;;5.20;99.90;;;;;;4999032;28;20478;-74
2021/12/04 01:04:58;;;;;;;3.40;3.08;;;5.20;99.90;;;;;;4985663;28;20033;-73
2021/12/04 01:07:25;;;;;;;5.45;3.63;;;5.20;99.90;;;;;;4984744;28;20042;-73
2021/12/04 01:09:51;;;;;;;5.53;3.83;;;5.20;99.90;;;;;;4988192;28;20322;-73
2021/12/04 01:12:17;;;;;;;3.03;2.83;;;5.20;99.90;;;;;;4987725;28;20466;-75
2021/12/04 01:14:43;;;;;;;4.25;3.75;;;5.20;99.90;;;;;;4988456;28;20110;-74
2021/12/04 01:17:09;;;;;;;3.90;2.70;;;5.20;99.90;;;;;;4997559;28;20094;-76
2021/12/04 01:19:36;;;;;;;2.97;2.67;;;5.20;99.90;;;;;;4989339;28;20035;-74
2021/12/04 01:22:04;;;;;;;3.78;3.40;;;5.20;99.90;;;;;;4987457;28;20028;-74
2021/12/04 01:24:30;;;;;;;6.10;3.33;;;5.20;99.90;;;;;;4990534;28;20046;-74
2021/12/04 01:26:57;;;;;;;3.20;2.85;;;5.20;99.90;;;;;;4989448;28;20484;-74
2021/12/04 01:29:22;;;;;;;4.53;4.05;;;5.20;99.90;;;;;;4985960;28;20180;-75
2021/12/04 01:31:48;;;;;;;4.30;3.55;;;5.20;99.90;;;;;;5005180;28;20482;-74
2021/12/04 01:34:16;;;;;;;5.28;3.47;;;5.20;99.90;;;;;;4985282;28;20373;-74
2021/12/04 01:36:42;;;;;;;5.03;3.63;;;5.10;99.90;;;;;;4983157;28;20317;-74
2021/12/04 01:39:08;;;;;;;4.10;3.03;;;5.10;99.90;;;;;;4988562;28;20022;-75
2021/12/04 01:41:34;;;;;;;5.88;4.03;;;5.10;99.90;;;;;;4989244;28;21367;-75
2021/12/04 01:44:02;;;;;;;8.00;3.15;;;5.10;99.90;;;;;;4982893;28;20119;-74
2021/12/04 01:46:29;;;;;;;4.57;4.18;;;5.00;99.90;;;;;;4988601;28;20030;-74
2021/12/04 01:48:55;;;;;;;5.50;3.33;;;5.00;99.90;;;;;;4979985;28;20500;-75
2021/12/04 01:51:22;;;;;;;5.00;3.75;;;5.00;99.90;;;;;;4981256;28;20037;-74
2021/12/04 01:53:48;;;;;;;7.15;3.90;;;5.00;99.90;;;;;;4989447;28;20117;-74
2021/12/04 01:56:14;;;;;;;4.30;3.25;;;5.00;99.90;;;;;;4991868;28;20041;-73
2021/12/04 01:58:42;;;;;;;7.47;3.75;;;5.10;99.90;;;;;;4995001;28;20034;-74
2021/12/04 02:01:08;;;;;;;4.78;3.42;;;5.10;99.90;;;;;;4990165;28;20019;-74
2021/12/04 02:03:34;;;;;;;4.05;3.10;;;5.10;99.90;;;;;;4989546;28;20037;-74
2021/12/04 02:06:00;;;;;;;3.80;3.28;;;5.20;99.90;;;;;;4989936;28;20097;-74
2021/12/04 02:08:26;;;;;;;4.20;2.80;;;5.20;99.90;;;;;;4991310;28;20041;-74
2021/12/04 02:10:54;;;;;;;4.20;3.47;;;5.20;99.90;;;;;;4992591;28;20505;-74
2021/12/04 02:13:21;;;;;;;3.95;3.55;;;5.20;99.90;;;;;;4992138;28;20026;-73
2021/12/04 02:15:49;;;;;;;4.95;3.20;;;5.10;99.90;;;;;;4988918;28;20117;-73
2021/12/04 02:18:20;;;;;;;4.55;3.90;;;5.10;99.90;;;;;;4991051;28;20133;-75
2021/12/04 02:20:47;;;;;;;4.95;3.70;;;5.10;99.90;;;;;;4990832;28;20203;-74
2021/12/04 02:23:12;;;;;;;5.05;3.28;;;5.20;99.90;;;;;;4988499;28;20041;-74
2021/12/04 02:25:39;;;;;;;3.03;2.72;;;5.20;99.90;;;;;;4991050;28;20018;-73
2021/12/04 02:28:07;;;;;;;4.63;3.60;;;5.20;99.90;;;;;;4988817;28;20053;-73
2021/12/04 02:30:37;;;;;;;3.58;3.05;;;5.20;99.90;;;;;;4990053;28;20030;-74
2021/12/04 02:33:11;;;;;;;5.43;3.25;;;5.10;99.90;;;;;;4988963;28;20033;-73
2021/12/04 02:35:39;;;;;;;4.15;3.75;;;5.20;99.90;;;;;;4987222;28;20066;-75
2021/12/04 02:38:05;;;;;;;6.05;3.75;;;5.10;99.90;;;;;;4988581;28;20109;-73
2021/12/04 02:40:30;;;;;;;4.90;4.03;;;5.10;99.90;;;;;;4991005;28;20121;-73
2021/12/04 02:42:56;;;;;;;7.25;3.97;;;5.10;99.90;;;;;;4988526;28;20113;-73
2021/12/04 02:45:22;;;;;;;7.45;3.25;;;5.00;99.90;;;;;;4986644;28;20038;-75
2021/12/04 02:47:48;;;;;;;5.32;3.75;;;5.20;99.90;;;;;;4991640;28;20080;-73
2021/12/04 02:50:14;;;;;;;4.45;3.13;;;5.30;99.90;;;;;;4993406;28;20413;-74
2021/12/04 02:52:40;;;;;;;3.95;3.63;;;5.20;99.90;;;;;;4983914;28;20046;-74
2021/12/04 02:55:06;;;;;;;5.85;4.00;;;5.20;99.90;;;;;;4987313;28;20023;-75
2021/12/04 02:57:40;;;;;;;6.30;4.10;;;5.20;99.90;;;;;;4993454;28;20018;-75
2021/12/04 03:00:06;;;;;;;4.68;4.00;;;5.10;99.90;;;;;;4985345;28;20513;-72
2021/12/04 03:02:32;;;;;;;5.15;4.15;;;5.00;99.90;;;;;;4984801;28;20038;-74
2021/12/04 03:05:02;;;;;;;5.28;3.58;;;5.00;99.90;;;;;;4992242;28;20105;-74
2021/12/04 03:07:28;;;;;;;3.95;3.42;;;4.90;99.90;;;;;;4991922;28;20080;-75
2021/12/04 03:09:54;;;;;;;4.00;3.40;;;5.00;99.90;;;;;;4991614;28;20520;-74
2021/12/04 03:12:23;;;;;;;3.88;3.10;;;5.00;99.90;;;;;;4992313;28;20027;-75
2021/12/04 03:14:50;;;;;;;4.47;4.07;;;5.00;99.90;;;;;;4991590;28;20046;-73
2021/12/04 03:17:19;;;;;;;3.80;3.50;;;5.00;99.90;;;;;;4989711;28;20481;-74
2021/12/04 03:19:45;;;;;;;4.15;3.80;;;5.00;99.90;;;;;;4988371;28;20495;-73
2021/12/04 03:22:11;;;;;;;5.47;4.00;;;5.00;99.90;;;;;;4990865;28;20031;-73
2021/12/04 03:24:40;;;;;;;4.35;3.80;;;4.90;99.90;;;;;;4995475;28;20110;-73
2021/12/04 03:27:06;;;;;;;5.93;4.40;;;4.90;99.90;;;;;;4992891;28;20073;-73
2021/12/04 03:29:38;;;;;;;6.03;4.35;;;4.80;99.90;;;;;;4984675;28;20026;-74
2021/12/04 03:40:11;;;;;;;6.55;3.78;;;4.80;99.90;;;;;;4992226;28;20037;-74
2021/12/04 03:42:40;;;;;;;4.22;3.83;;;4.80;99.90;;;;;;4990732;28;20095;-73
2021/12/04 03:45:08;;;;;;;5.20;3.83;;;4.70;99.90;;;;;;4989919;28;20022;-74
2021/12/04 03:47:34;;;;;;;5.40;3.95;;;4.70;99.90;;;;;;4990208;28;20397;-73
2021/12/04 03:49:59;;;;;;;4.63;4.13;;;4.70;99.90;;;;;;4991249;28;20026;-73
2021/12/04 03:52:25;;;;;;;5.25;4.20;;;4.70;99.90;;;;;;4992636;28;20517;-75
2021/12/04 03:54:51;;;;;;;4.10;3.58;;;4.70;99.90;;;;;;4991093;28;20045;-75
2021/12/04 03:57:16;;;;;;;6.00;4.40;;;4.70;99.90;;;;;;4991558;28;20154;-75
2021/12/04 03:59:46;;;;;;;4.78;4.25;;;4.70;99.90;;;;;;4989704;28;20049;-77
2021/12/04 04:02:14;;;;;;;4.63;3.83;;;4.60;99.90;;;;;;4987807;28;20049;-73
2021/12/04 04:04:40;;;;;;;5.05;3.88;;;4.60;99.90;;;;;;4988990;28;20022;-74
2021/12/04 04:07:06;;;;;;;4.22;3.17;;;4.70;99.90;;;;;;4987791;28;20041;-73
2021/12/04 04:09:33;;;;;;;6.00;3.92;;;4.80;99.90;;;;;;4990301;28;20042;-73
2021/12/04 04:11:59;;;;;;;5.88;4.38;;;4.80;99.90;;;;;;4990428;28;20037;-73
2021/12/04 04:14:25;;;;;;;4.85;3.40;;;4.80;99.90;;;;;;4988396;28;20103;-73
2021/12/04 04:16:53;;;;;;;6.32;4.35;;;4.70;99.90;;;;;;4988294;28;20026;-74
2021/12/04 04:19:20;;;;;;;4.03;3.67;;;4.80;99.90;;;;;;4987706;28;20030;-74
2021/12/04 04:21:48;;;;;;;6.18;3.63;;;4.80;99.90;;;;;;4988130;28;20455;-75
2021/12/04 04:24:18;;;;;;;4.25;3.85;;;4.80;99.90;;;;;;4987496;28;20035;-74
2021/12/04 04:26:45;;;;;;;5.65;4.30;;;4.80;99.90;;;;;;4989776;28;20022;-74
2021/12/04 04:29:12;;;;;;;6.63;4.45;;;4.80;99.90;;;;;;4988446;28;20125;-74
2021/12/04 04:31:45;;;;;;;4.95;4.00;;;4.80;99.90;;;;;;4989677;28;20022;-73
2021/12/04 04:34:12;;;;;;;4.97;4.47;;;4.80;99.90;;;;;;4986273;28;20109;-73
2021/12/04 05:14:26;;;;;;;6.68;4.25;;;4.80;99.90;;;;;;4993093;28;20433;-75
2021/12/04 05:16:59;;;;;;;4.70;3.65;;;4.70;99.90;;;;;;4990829;28;20033;-74
2021/12/04 05:19:28;;;;;;;5.57;4.15;;;4.70;99.90;;;;;;4989589;28;20076;-74
2021/12/04 05:21:54;;;;;;;7.75;4.50;;;4.60;99.90;;;;;;4988336;28;20476;-75
2021/12/04 05:24:21;;;;;;;6.80;4.22;;;4.60;99.90;;;;;;4988694;28;20061;-74
2021/12/04 05:26:47;;;;;;;6.03;4.93;;;4.50;99.90;;;;;;4986414;28;20117;-74
2021/12/04 05:29:13;;;;;;;5.28;4.65;;;4.60;99.90;;;;;;4986383;28;20110;-74
2021/12/04 05:31:38;;;;;;;4.68;3.72;;;4.50;99.90;;;;;;4991987;28;20142;-74
2021/12/04 05:34:04;;;;;;;5.05;3.60;;;4.50;99.90;;;;;;4991754;28;20053;-74
2021/12/04 05:36:30;;;;;;;6.53;4.45;;;4.70;99.90;;;;;;4993118;28;20030;-74
2021/12/04 05:38:55;;;;;;;4.03;3.47;;;4.70;99.90;;;;;;4994408;28;20385;-74
2021/12/04 05:41:25;;;;;;;6.20;4.60;;;4.60;99.90;;;;;;4998538;28;20030;-73
2021/12/04 05:43:51;;;;;;;7.18;3.40;;;4.60;99.90;;;;;;4992582;28;20018;-73
2021/12/04 05:46:20;;;;;;;5.15;3.92;;;4.70;99.90;;;;;;4994359;28;20046;-74
2021/12/04 05:53:57;;;;;;;5.57;3.88;;;4.70;99.90;;;;;;4997953;28;20362;-74
2021/12/04 05:56:24;;;;;;;5.18;4.10;;;4.70;99.90;;;;;;4994769;28;20022;-74
2021/12/04 05:58:51;;;;;;;6.68;3.67;;;4.60;99.90;;;;;;4994214;28;20393;-75
2021/12/04 06:01:19;;;;;;;6.78;4.45;;;4.60;99.90;;;;;;4991839;28;20041;-73
2021/12/04 06:03:45;;;;;;;4.20;3.67;;;4.60;99.90;;;;;;4992069;28;20032;-73
2021/12/04 06:06:11;;;;;;;9.00;4.20;;;4.60;99.90;;;;;;4985366;28;20031;-73
2021/12/04 06:08:37;;;;;;;4.20;3.80;;;4.60;99.90;;;;;;4993141;28;20074;-74
2021/12/04 06:11:02;;;;;;;6.25;4.22;;;4.50;99.90;;;;;;4991069;28;20396;-74
2021/12/04 06:13:28;;;;;;;4.95;4.10;;;4.50;99.90;;;;;;4993966;28;20277;-73
2021/12/04 06:15:55;;;;;;;5.57;5.03;;;4.40;99.90;;;;;;4997003;28;20026;-74
2021/12/04 06:18:22;;;;;;;5.93;5.18;;;4.40;99.90;;;;;;4993593;28;20037;-75
2021/12/04 06:23:32;;;;;;;6.93;4.78;;;4.30;99.90;;;;;;4995559;28;20037;-75
2021/12/04 06:25:59;;;;;;;4.10;3.70;;;4.40;99.90;;;;;;4993920;28;20069;-75
2021/12/04 06:28:25;;;;;;;4.22;3.60;;;4.30;99.90;;;;;;4991613;28;20114;-74
2021/12/04 06:30:54;;;;;;;3.65;3.22;;;4.30;99.90;;;;;;4992127;28;20027;-75
2021/12/04 06:33:21;;;;;;;4.70;4.18;;;4.20;99.90;;;;;;4990707;28;20038;-74
2021/12/04 06:35:47;;;;;;;4.30;3.60;;;4.30;99.90;;;;;;4985685;28;20089;-73
2021/12/04 06:38:16;;;;;;;6.20;4.43;;;4.30;99.90;;;;;;4994623;28;20026;-74
2021/12/04 06:40:42;;;;;;;4.90;3.97;;;4.30;99.90;;;;;;4990588;28;20038;-74
2021/12/04 06:43:08;;;;;;;5.20;3.97;;;4.40;99.90;;;;;;4989825;28;20350;-74
2021/12/04 06:45:36;;;;;;;7.22;4.60;;;4.40;99.90;;;;;;4991713;28;20053;-75
2021/12/04 06:48:18;;;;;;;7.47;5.03;;;4.50;99.90;;;;;;4999287;28;20060;-75
2021/12/04 06:50:48;;;;;;;5.83;4.23;;;4.50;99.90;;;;;;4993318;28;20026;-74
2021/12/04 06:53:22;;;;;;;6.25;4.78;;;4.60;99.90;;;;;;4987329;28;20150;-74
2021/12/04 06:55:52;;;;;;;5.50;4.63;;;4.60;99.90;;;;;;4987797;28;20503;-74
2021/12/04 06:58:19;;;;;;;4.38;3.83;;;4.70;99.90;;;;;;4991865;28;20026;-74
2021/12/04 07:00:45;;;;;;;4.25;3.53;;;4.60;99.90;;;;;;4991651;28;20555;-73
2021/12/04 07:03:11;;;;;;;6.47;4.25;;;4.60;99.90;;;;;;4991587;28;20074;-74
2021/12/04 07:05:36;;;;;;;5.35;4.55;;;4.60;99.90;;;;;;4987837;28;20041;-74
2021/12/04 07:08:05;;;;;;;5.38;4.07;;;4.60;99.90;;;;;;4988857;28;20153;-75
2021/12/04 07:10:32;;;;;;;4.65;3.83;;;4.60;99.90;;;;;;4987651;28;20058;-74
2021/12/04 07:12:58;;;;;;;7.28;4.28;;;4.70;99.90;;;;;;4991559;28;20026;-75
2021/12/04 07:15:27;;;;;;;4.07;3.65;;;4.80;99.90;;;;;;4991306;28;20041;-74
2021/12/04 07:17:53;;;;;;;4.20;3.80;;;4.80;99.90;;;;;;4994553;28;20029;-74
2021/12/04 07:20:18;;;;;;;6.63;4.22;;;4.90;99.90;;;;;;4990847;28;20015;-74
2021/12/04 07:22:44;;;;;;;7.07;3.75;;;5.00;99.90;;;;;;4995262;28;20154;-73
2021/12/04 07:25:10;;;;;;;4.70;4.25;;;5.00;99.90;;;;;;4996137;28;20560;-74
2021/12/04 07:27:36;;;;;;;4.53;4.07;;;4.90;99.90;;;;;;4989705;28;20457;-74
2021/12/04 07:30:03;;;;;;;4.70;4.30;;;4.90;99.90;;;;;;4990371;28;20030;-74
2021/12/04 07:32:29;;;;;;;5.20;4.15;;;4.90;99.90;;;;;;4991240;28;20030;-75
2021/12/04 07:34:55;;;;;;;4.75;3.72;;;5.00;99.90;;;;;;4991229;28;20030;-74
2021/12/04 07:37:21;;;;;;;5.88;4.88;;;5.00;99.90;;;;;;4997155;28;20032;-74
2021/12/04 07:39:47;;;;;;;7.47;5.75;;;5.10;99.90;;;;;;4994861;28;20056;-74
2021/12/04 07:42:13;;;;;;;5.38;4.60;;;5.20;99.90;;;;;;4996973;28;20018;-77
2021/12/04 07:44:39;;;;;;;5.20;4.70;;;5.30;99.90;;;;;;4998119;28;20027;-74
2021/12/04 07:47:04;;;;;;;5.22;4.10;;;5.30;99.90;;;;;;4994398;28;20513;-75
2021/12/04 07:49:30;;;;;;;4.90;3.78;;;5.30;99.90;;;;;;5004051;28;20027;-75
2021/12/04 07:51:56;;;;;;;6.40;5.10;;;5.30;99.90;;;;;;4994860;28;20061;-71
2021/12/04 07:54:22;;;;;;;6.32;4.57;;;5.30;99.90;;;;;;4991281;28;20093;-68
2021/12/04 07:56:47;;;;;;;4.25;3.85;;;5.40;99.90;;;;;;4993261;28;20097;-67
2021/12/04 07:59:13;;;;;;;5.72;4.28;;;5.40;99.90;;;;;;4991405;28;20038;-67
2021/12/04 08:01:39;;;;;;;8.68;5.20;;;5.40;99.90;;;;;;4990555;28;20026;-68
2021/12/04 08:04:05;;;;;;;9.10;4.68;;;5.40;99.90;;;;;;4993263;28;20022;-66
2021/12/04 08:06:35;;;;;;;5.82;4.25;;;5.40;99.90;;;;;;4993425;28;20528;-67
2021/12/04 08:09:01;;;;;;;8.50;7.70;;;5.40;99.90;;;;;;4991427;28;20033;-69
2021/12/04 08:11:27;;;;;;;6.97;6.38;;;5.50;99.90;;;;;;4990839;28;20030;-68
2021/12/04 08:13:54;;;;;;;6.68;4.80;;;5.60;99.90;;;;;;4991104;28;20170;-67
2021/12/04 08:16:24;;;;;;;4.63;3.83;;;5.70;99.90;;;;;;4999873;28;20061;-70
2021/12/04 08:18:51;;;;;;;7.53;4.60;;;5.80;99.90;;;;;;5003188;28;20053;-68
2021/12/04 08:21:17;;;;;;;4.45;4.05;;;5.90;99.90;;;;;;4992210;28;20038;-67
2021/12/04 08:23:43;;;;;;;6.50;4.07;;;6.00;99.90;;;;;;4999573;28;20038;-68
2021/12/04 08:26:09;;;;;;;6.30;4.28;;;6.10;99.90;;;;;;5009023;28;20502;-67
2021/12/04 08:28:35;;;;;;;6.38;4.22;;;6.20;99.90;;;;;;5002992;28;20031;-68
2021/12/04 08:31:01;;;;;;;4.78;4.30;;;6.40;99.90;;;;;;4989769;28;20072;-68
2021/12/04 08:33:27;;;;;;;5.10;4.35;;;6.40;99.90;;;;;;4989952;28;20499;-68
2021/12/04 08:35:53;;;;;;;5.68;4.90;;;6.50;99.90;;;;;;4992428;28;20095;-68
2021/12/04 08:38:18;;;;;;;9.15;5.55;;;6.50;99.90;;;;;;4993036;28;20092;-68
2021/12/04 08:40:44;;;;;;;8.52;4.55;;;6.60;99.90;;;;;;4993158;28;20062;-67
2021/12/04 08:43:11;;;;;;;4.95;4.20;;;6.60;99.90;;;;;;4990423;28;20032;-68
2021/12/04 08:45:37;;;;;;;7.03;4.05;;;6.70;99.90;;;;;;4991028;28;20022;-69
2021/12/04 08:48:04;;;;;;;10.68;4.00;;;6.90;99.90;;;;;;4990588;28;20084;-69
2021/12/04 08:50:31;;;;;;;5.85;3.38;;;7.00;99.90;;;;;;4990776;28;20069;-67
2021/12/04 08:52:59;;;;;;;8.48;3.85;;;7.10;99.90;;;;;;4990577;28;20030;-68
2021/12/04 08:55:27;;;;;;;4.15;3.75;;;7.10;99.90;;;;;;4991091;28;20026;-69
2021/12/04 08:57:53;;;;;;;7.75;4.30;;;7.10;99.90;;;;;;4990107;28;20038;-68
2021/12/04 09:00:28;;;;;;;8.07;5.30;;;7.30;99.90;;;;;;4990686;28;20022;-69
2021/12/04 09:02:54;;;;;;;5.40;4.35;;;7.50;99.90;;;;;;4990410;28;20018;-70
2021/12/04 09:05:21;;;;;;;6.32;4.20;;;7.50;99.90;;;;;;4988342;28;20035;-68
2021/12/04 09:07:48;;;;;;;8.75;5.18;;;7.50;99.90;;;;;;4989534;28;20038;-67
2021/12/04 09:10:15;;;;;;;8.88;5.07;;;7.60;99.90;;;;;;4989438;28;20041;-68
2021/12/04 09:12:41;;;;;;;6.05;4.72;;;7.80;99.90;;;;;;4991030;28;20054;-69
2021/12/04 09:15:12;;;;;;;8.68;4.95;;;7.80;99.90;;;;;;4990102;28;20115;-67
2021/12/04 09:17:38;;;;;;;9.55;4.70;;;7.80;99.90;;;;;;4990481;28;20564;-67
2021/12/04 09:20:06;;;;;;;4.32;3.90;;;7.90;99.90;;;;;;4990435;28;20233;-67
2021/12/04 09:22:35;;;;;;;9.38;4.68;;;7.80;99.90;;;;;;4990911;28;20025;-68
2021/12/04 09:25:09;;;;;;;6.57;3.38;;;7.60;99.90;;;;;;4990204;28;20500;-69
2021/12/04 09:27:43;;;;;;;3.92;3.58;;;7.80;99.90;;;;;;4989561;28;20030;-70
2021/12/04 10:22:00;;;;;;;5.10;3.33;;;9.60;99.90;;;;;;4993715;28;20512;-68
2021/12/04 10:33:19;;;;;;;136.40;78.32;;;9.90;99.90;;;;;;4992558;28;20089;-68
2021/12/04 10:35:47;;;;;;;46.15;27.20;;;9.80;99.90;;;;;;4991371;28;20035;-68
2021/12/04 10:38:20;;;;;;;51.80;28.70;;;9.80;99.90;;;;;;4990365;28;20019;-68
2021/12/04 10:40:48;;;;;;;64.30;40.40;;;9.70;99.90;;;;;;4993378;28;20134;-68
2021/12/04 10:43:30;;;;;;;40.67;23.15;;;9.80;99.90;;;;;;4991215;28;20019;-68
2021/12/04 10:46:00;;;;;;;34.65;21.02;;;9.80;99.90;;;;;;4991301;28;20338;-68
2021/12/04 10:48:29;;;;;;;28.33;15.93;;;9.80;99.90;;;;;;4989967;28;20038;-66
2021/12/04 10:53:32;;;;;;;53.90;35.75;;;9.90;99.90;;;;;;4985024;28;20037;-69
2021/12/04 11:28:44;;;;;;;30.45;23.13;;;10.20;99.90;;;;;;4988977;28;20092;-68
2021/12/04 11:35:09;;;;;;;5.07;4.18;;;10.20;99.90;;;;;;4987476;28;20042;-70
2021/12/04 11:44:51;;;;;;;2.58;2.38;;;10.20;99.90;;;;;;4990378;28;20149;-69
2021/12/04 11:47:18;;;;;;;3.05;2.70;;;10.30;99.90;;;;;;4992216;28;20164;-69
2021/12/04 11:49:44;;;;;;;3.90;2.50;;;10.40;99.90;;;;;;4988955;28;20022;-70
2021/12/04 11:52:17;;;;;;;4.13;2.80;;;10.40;99.90;;;;;;4990753;28;20101;-68
2021/12/04 11:54:49;;;;;;;2.85;2.65;;;10.50;99.90;;;;;;4990969;28;20046;-69
2021/12/04 11:57:18;;;;;;;3.80;2.85;;;10.60;99.90;;;;;;4990888;28;20034;-68
2021/12/04 11:59:46;;;;;;;3.10;2.50;;;10.60;99.90;;;;;;4988853;28;20037;-70
2021/12/04 12:02:23;;;;;;;6.28;2.67;;;10.70;99.90;;;;;;4987547;28;20057;-68
2021/12/04 12:04:53;;;;;;;2.85;2.45;;;10.80;99.90;;;;;;4993424;28;20057;-68
2021/12/04 12:07:24;;;;;;;3.20;2.90;;;10.60;99.90;;;;;;4990434;28;20026;-69
2021/12/04 12:10:11;;;;;;;3.20;2.90;;;10.50;99.90;;;;;;4986325;28;20018;-69
2021/12/04 12:12:40;;;;;;;3.85;3.45;;;10.40;99.90;;;;;;4991432;28;20124;-68
2021/12/04 12:15:26;;;;;;;4.13;3.72;;;10.40;99.90;;;;;;4987538;28;20604;-70
2021/12/04 12:17:54;;;;;;;3.58;3.28;;;10.40;99.90;;;;;;4990754;28;20025;-67
2021/12/04 12:20:51;;;;;;;6.82;3.25;;;10.30;99.90;;;;;;4990955;28;20042;-67
2021/12/04 12:23:21;;;;;;;3.22;2.58;;;10.30;99.90;;;;;;4983215;28;22683;-68
2021/12/04 12:37:23;;;;;;;5.70;3.15;;;10.30;99.90;;;;;;4988897;28;20034;-68
2021/12/04 12:39:53;;;;;;;3.50;2.92;;;10.40;99.90;;;;;;4988373;28;20477;-70
2021/12/04 12:42:34;;;;;;;3.90;2.85;;;10.40;99.90;;;;;;4982624;28;20031;-69
2021/12/04 12:45:20;;;;;;;3.08;2.70;;;10.30;99.90;;;;;;4984312;28;20034;-67
2021/12/04 12:48:08;;;;;;;3.00;2.78;;;10.20;99.90;;;;;;4986284;28;20053;-67
2021/12/04 12:50:40;;;;;;;4.78;3.35;;;10.20;99.90;;;;;;4986703;28;20030;-68
2021/12/04 12:53:18;;;;;;;4.10;3.08;;;10.20;99.90;;;;;;4985417;28;20101;-68
2021/12/04 12:55:47;;;;;;;3.97;2.97;;;10.30;99.90;;;;;;4986487;28;20072;-66
2021/12/04 12:58:29;;;;;;;4.55;3.33;;;10.40;99.90;;;;;;4989634;28;20031;-69
2021/12/04 13:12:15;;;;;;;6.03;4.72;;;10.60;99.90;;;;;;4990259;28;20118;-68
2021/12/04 13:14:40;;;;;;;9.60;5.03;;;10.60;99.90;;;;;;4987660;28;20019;-68
2021/12/04 13:17:16;;;;;;;5.18;4.65;;;10.50;99.90;;;;;;4989446;28;20030;-69
2021/12/04 13:19:47;;;;;;;8.57;4.63;;;10.50;99.90;;;;;;4986523;28;20033;-70
2021/12/04 13:22:26;;;;;;;3.90;3.60;;;10.60;99.90;;;;;;4987857;28;20498;-67
2021/12/04 13:24:54;;;;;;;4.57;3.03;;;10.50;99.90;;;;;;4986274;28;20061;-68
2021/12/04 13:29:54;;;;;;;5.03;3.90;;;10.50;99.90;;;;;;4989295;28;20030;-67
2021/12/04 13:32:35;;;;;;;4.20;3.80;;;10.60;99.90;;;;;;4987666;28;20609;-66
2021/12/04 13:35:19;;;;;;;5.47;5.00;;;10.60;99.90;;;;;;4988549;28;20038;-67
2021/12/04 13:37:46;;;;;;;4.50;4.05;;;10.70;99.90;;;;;;4987309;28;20037;-68
2021/12/04 13:40:16;;;;;;;4.57;4.18;;;10.60;99.90;;;;;;4986190;28;20498;-68
2021/12/04 13:42:43;;;;;;;5.35;4.53;;;10.50;99.90;;;;;;4986962;28;20061;-67
2021/12/04 13:45:12;;;;;;;5.22;4.03;;;10.40;99.90;;;;;;4986005;28;20071;-68
2021/12/04 13:47:38;;;;;;;4.47;4.07;;;10.30;99.90;;;;;;4988695;28;20046;-67
2021/12/04 13:53:19;;;;;;;9.23;5.60;;;10.00;99.90;;;;;;4991712;28;20087;-68
2021/12/04 13:55:54;;;;;;;7.40;4.68;;;9.80;99.90;;;;;;4992697;28;20073;-67
2021/12/04 13:58:20;;;;;;;5.40;4.78;;;9.70;99.90;;;;;;4993500;28;20022;-67
2021/12/04 14:00:46;;;;;;;10.05;5.35;;;9.70;99.90;;;;;;4991995;28;20071;-66
2021/12/04 14:03:12;;;;;;;12.13;4.60;;;9.60;99.90;;;;;;4993136;28;20084;-67
2021/12/04 14:05:39;;;;;;;9.95;3.78;;;9.50;99.90;;;;;;4992969;28;20031;-67
2021/12/04 14:08:06;;;;;;;10.73;5.05;;;9.40;99.90;;;;;;4991306;28;20031;-67
2021/12/04 14:10:37;;;;;;;10.40;5.22;;;9.40;99.90;;;;;;4988720;28;20480;-66
2021/12/04 14:13:04;;;;;;;7.93;4.57;;;9.30;99.90;;;;;;4992209;28;20088;-66
2021/12/04 14:15:32;;;;;;;10.15;5.00;;;9.30;99.90;;;;;;4990605;28;20034;-67
2021/12/04 14:18:06;;;;;;;10.93;4.60;;;9.40;99.90;;;;;;4992423;28;20022;-68
2021/12/04 14:20:34;;;;;;;5.53;5.00;;;9.40;99.90;;;;;;4991895;28;20391;-67
2021/12/04 14:23:00;;;;;;;6.95;4.22;;;9.40;99.90;;;;;;4990265;28;20072;-66
2021/12/04 14:25:28;;;;;;;5.18;4.13;;;9.40;99.90;;;;;;4993071;28;20388;-66
2021/12/04 14:27:56;;;;;;;4.80;4.30;;;9.40;99.90;;;;;;4990042;28;20161;-66
2021/12/04 14:30:36;;;;;;;4.05;3.67;;;9.30;99.90;;;;;;4992558;28;20026;-68
2021/12/04 14:33:04;;;;;;;6.28;5.18;;;9.20;99.90;;;;;;4989477;28;20484;-65
2021/12/04 14:35:36;;;;;;;4.53;4.00;;;9.20;99.90;;;;;;4990458;28;20058;-66
2021/12/04 14:38:06;;;;;;;4.22;3.83;;;9.10;99.90;;;;;;4989508;28;20022;-66
2021/12/04 14:40:38;;;;;;;13.55;3.78;;;9.10;99.90;;;;;;4992260;28;20031;-68
2021/12/04 14:43:05;;;;;;;7.20;4.95;;;9.10;99.90;;;;;;4987643;28;20069;-67
2021/12/04 14:45:34;;;;;;;13.10;6.15;;;9.10;99.90;;;;;;4989683;28;20041;-67
2021/12/04 14:48:07;;;;;;;10.43;5.55;;;9.30;99.90;;;;;;4989779;28;20029;-66
2021/12/04 14:50:39;;;;;;;5.45;4.95;;;9.30;99.90;;;;;;4987187;28;20560;-66
2021/12/04 14:53:07;;;;;;;12.10;5.35;;;9.50;99.90;;;;;;4991105;28;20404;-66
2021/12/04 14:55:43;;;;;;;8.77;4.93;;;9.60;99.90;;;;;;4991129;28;20027;-66
2021/12/04 14:58:13;;;;;;;5.60;3.45;;;9.60;99.90;;;;;;4989077;28;20044;-66
2021/12/04 15:01:01;;;;;;;5.30;3.67;;;9.70;99.90;;;;;;4989990;28;20075;-66
2021/12/04 15:03:43;;;;;;;4.78;3.30;;;9.80;99.90;;;;;;4991853;28;20030;-66
2021/12/04 15:06:12;;;;;;;12.48;6.20;;;9.90;99.90;;;;;;4977963;28;20045;-67
2021/12/04 15:08:48;;;;;;;11.15;6.80;;;9.90;99.90;;;;;;4991671;28;20045;-68
2021/12/04 15:11:21;;;;;;;12.07;8.45;;;9.90;99.90;;;;;;4990872;28;20053;-69
2021/12/04 15:14:02;;;;;;;7.35;5.95;;;10.00;99.90;;;;;;4991852;28;20109;-68
2021/12/04 15:16:40;;;;;;;7.10;5.18;;;10.00;99.90;;;;;;4988520;28;20026;-71
2021/12/04 15:19:12;;;;;;;10.02;7.35;;;9.90;99.90;;;;;;4987742;28;20110;-68
2021/12/04 15:21:43;;;;;;;13.90;7.18;;;9.90;99.90;;;;;;4990231;28;20023;-69
2021/12/04 15:24:13;;;;;;;12.55;7.22;;;9.80;99.90;;;;;;4991455;28;20065;-68
2021/12/04 15:26:41;;;;;;;9.88;6.40;;;9.70;99.90;;;;;;4988956;28;20480;-69
2021/12/04 15:29:26;;;;;;;15.95;9.68;;;9.60;99.90;;;;;;4989905;28;20125;-68
2021/12/04 15:31:54;;;;;;;9.15;6.45;;;9.60;99.90;;;;;;4989441;28;20453;-67
2021/12/04 15:34:51;;;;;;;9.00;7.13;;;9.60;99.90;;;;;;4989741;28;20026;-69
2021/12/04 15:37:41;;;;;;;10.10;6.43;;;9.60;99.90;;;;;;4991396;28;20455;-67
2021/12/04 15:40:35;;;;;;;9.05;5.72;;;9.60;99.90;;;;;;4992034;28;20512;-68
2021/12/04 15:43:22;;;;;;;8.48;6.28;;;9.60;99.90;;;;;;4972481;28;20022;-68
2021/12/04 15:46:03;;;;;;;9.95;8.48;;;9.50;99.90;;;;;;4972566;28;20118;-68
2021/12/04 15:48:43;;;;;;;10.88;9.13;;;9.30;99.90;;;;;;4972106;28;20034;-69
2021/12/04 15:53:54;;;;;;;10.48;8.45;;;9.10;99.90;;;;;;4983558;28;20041;-72
2021/12/04 15:56:41;;;;;;;15.82;10.65;;;9.00;99.90;;;;;;4994458;28;20089;-74
2021/12/04 15:59:11;;;;;;;14.00;9.52;;;9.10;99.90;;;;;;4972707;28;20031;-73
2021/12/04 16:01:36;;;;;;;11.13;8.65;;;9.10;99.90;;;;;;4972618;28;20031;-74
2021/12/04 16:04:02;;;;;;;13.05;9.13;;;9.10;99.90;;;;;;4972507;28;20038;-74
2021/12/04 16:06:39;;;;;;;13.90;9.55;;;9.20;99.90;;;;;;4972317;28;20031;-74
2021/12/04 16:09:08;;;;;;;12.57;9.68;;;9.20;99.90;;;;;;4980978;28;20026;-74
2021/12/04 16:11:40;;;;;;;12.82;8.48;;;9.20;99.90;;;;;;4986896;28;20078;-73
2021/12/04 16:14:07;;;;;;;11.43;9.40;;;9.20;99.90;;;;;;4991684;28;20062;-76
2021/12/04 16:16:41;;;;;;;13.52;9.05;;;9.30;99.90;;;;;;4989022;28;20046;-77
2021/12/04 16:19:08;;;;;;;16.15;10.40;;;9.30;99.90;;;;;;4990337;28;20030;-75
2021/12/04 16:21:35;;;;;;;12.38;8.63;;;9.30;99.90;;;;;;4989532;28;20030;-75
2021/12/04 16:24:06;;;;;;;15.65;8.98;;;9.30;99.90;;;;;;4989922;28;20035;-74
2021/12/04 16:26:32;;;;;;;16.90;10.68;;;9.40;99.90;;;;;;4987943;28;20065;-75
2021/12/04 16:29:06;;;;;;;12.10;9.30;;;9.40;99.90;;;;;;4990138;28;20085;-75